createdAt,value
2018-11-13T00:00:31.925Z,100583.00
2018-11-13T00:03:02.424Z,100585.00
2018-11-13T00:05:32.129Z,100591.00
2018-11-13T00:08:01.558Z,100592.00
2018-11-13T00:10:30.969Z,100591.00
2018-11-13T00:13:00.371Z,100596.00
2018-11-13T00:15:29.754Z,100594.00
2018-11-13T00:18:01.799Z,100590.00
2018-11-13T00:20:40.387Z,100585.00
2018-11-13T00:23:09.979Z,100591.00
2018-11-13T00:25:40.627Z,100592.00
2018-11-13T00:28:10.566Z,100590.00
2018-11-13T00:30:43.969Z,100593.00
2018-11-13T00:33:14.542Z,100594.00
2018-11-13T00:35:45.324Z,100594.00
2018-11-13T00:38:17.856Z,100590.00
2018-11-13T00:40:48.329Z,100593.00
2018-11-13T00:43:25.170Z,100580.00
2018-11-13T00:45:56.494Z,100576.00
2018-11-13T00:48:26.576Z,100590.00
2018-11-13T00:50:55.894Z,100583.00
2018-11-13T00:53:27.433Z,100584.00
2018-11-13T00:55:59.540Z,100585.00
2018-11-13T00:58:29.239Z,100578.00
2018-11-13T01:01:00.591Z,100581.00
2018-11-13T01:03:30.323Z,100585.00
2018-11-13T01:06:00.560Z,100585.00
2018-11-13T01:08:32.011Z,100585.00
2018-11-13T01:11:05.036Z,100587.00
2018-11-13T01:13:36.228Z,100583.00
2018-11-13T01:16:08.067Z,100597.00
2018-11-13T01:18:42.507Z,100597.00
2018-11-13T01:21:12.130Z,100606.00
2018-11-13T01:23:44.324Z,100592.00
2018-11-13T01:26:13.827Z,100600.00
2018-11-13T01:28:45.078Z,100605.00
2018-11-13T01:31:25.333Z,100602.00
2018-11-13T01:34:19.096Z,100610.00
2018-11-13T01:36:49.746Z,100614.00
2018-11-13T01:39:19.224Z,100607.00
2018-11-13T01:41:50.302Z,100601.00
2018-11-13T01:44:21.133Z,100599.00
2018-11-13T01:46:51.659Z,100599.00
2018-11-13T01:49:21.797Z,100606.00
2018-11-13T01:51:51.401Z,100598.00
2018-11-13T01:54:20.890Z,100591.00
2018-11-13T01:56:50.268Z,100600.00
2018-11-13T01:59:19.638Z,100603.00
2018-11-13T02:01:49.110Z,100600.00
2018-11-13T02:04:18.549Z,100604.00
2018-11-13T02:06:48.275Z,100606.00
2018-11-13T02:09:18.508Z,100598.00
2018-11-13T02:11:47.826Z,100589.00
2018-11-13T02:14:17.518Z,100584.00
2018-11-13T02:16:46.817Z,100595.00
2018-11-13T02:19:16.205Z,100605.00
2018-11-13T02:21:45.605Z,100605.00
2018-11-13T02:24:14.940Z,100599.00
2018-11-13T02:26:45.320Z,100607.00
2018-11-13T02:29:16.393Z,100621.00
2018-11-13T02:31:45.933Z,100622.00
2018-11-13T02:34:15.483Z,100618.00
2018-11-13T02:36:45.114Z,100624.00
2018-11-13T02:39:14.448Z,100616.00
2018-11-13T02:41:43.840Z,100608.00
2018-11-13T02:44:13.216Z,100603.00
2018-11-13T02:46:43.520Z,100608.00
2018-11-13T02:49:13.555Z,100605.00
2018-11-13T02:51:43.976Z,100609.00
2018-11-13T02:54:14.693Z,100617.00
2018-11-13T02:56:45.759Z,100605.00
2018-11-13T02:59:16.080Z,100609.00
2018-11-13T03:01:45.410Z,100618.00
2018-11-13T03:04:14.865Z,100617.00
2018-11-13T03:06:44.277Z,100613.00
2018-11-13T03:09:13.773Z,100598.00
2018-11-13T03:11:43.233Z,100589.00
2018-11-13T03:14:14.129Z,100580.00
2018-11-13T03:16:43.601Z,100584.00
2018-11-13T03:19:14.196Z,100585.00
2018-11-13T03:21:43.666Z,100591.00
2018-11-13T03:24:18.826Z,100602.00
2018-11-13T03:26:49.793Z,100608.00
2018-11-13T03:29:20.241Z,100610.00
2018-11-13T03:31:51.898Z,100606.00
2018-11-13T03:34:22.801Z,100604.00
2018-11-13T03:36:53.517Z,100599.00
2018-11-13T03:39:24.332Z,100608.00
2018-11-13T03:41:55.852Z,100609.00
2018-11-13T03:44:25.549Z,100626.00
2018-11-13T03:47:03.031Z,100636.00
2018-11-13T03:49:33.248Z,100629.00
2018-11-13T03:52:02.810Z,100629.00
2018-11-13T03:54:32.090Z,100618.00
2018-11-13T03:57:01.420Z,100610.00
2018-11-13T03:59:30.812Z,100612.00
2018-11-13T04:02:00.246Z,100607.00
2018-11-13T04:04:29.588Z,100607.00
2018-11-13T04:06:58.963Z,100599.00
2018-11-13T04:09:28.476Z,100599.00
2018-11-13T04:11:57.937Z,100599.00
2018-11-13T04:14:27.449Z,100604.00
2018-11-13T04:16:56.966Z,100599.00
2018-11-13T04:19:26.482Z,100599.00
2018-11-13T04:22:02.856Z,100597.00
2018-11-13T04:24:32.495Z,100602.00
2018-11-13T04:27:02.562Z,100596.00
2018-11-13T04:29:35.125Z,100593.00
2018-11-13T04:32:04.658Z,100601.00
2018-11-13T04:34:34.062Z,100607.00
2018-11-13T04:37:05.627Z,100599.00
2018-11-13T04:39:35.142Z,100604.00
2018-11-13T04:42:04.826Z,100607.00
2018-11-13T04:44:34.169Z,100600.00
2018-11-13T04:47:04.761Z,100612.00
2018-11-13T04:49:35.800Z,100618.00
2018-11-13T04:52:08.884Z,100619.00
2018-11-13T04:54:38.528Z,100625.00
2018-11-13T04:57:09.153Z,100623.00
2018-11-13T04:59:40.122Z,100633.00
2018-11-13T05:02:11.128Z,100632.00
2018-11-13T05:04:40.807Z,100631.00
2018-11-13T05:07:11.397Z,100623.00
2018-11-13T05:09:44.575Z,100624.00
2018-11-13T05:12:15.360Z,100624.00
2018-11-13T05:14:51.230Z,100622.00
2018-11-13T05:17:40.094Z,100627.00
2018-11-13T05:20:50.590Z,100636.00
2018-11-13T05:23:21.375Z,100631.00
2018-11-13T05:25:53.537Z,100626.00
2018-11-13T05:28:23.813Z,100625.00
2018-11-13T05:30:58.477Z,100628.00
2018-11-13T05:33:34.695Z,100632.00
2018-11-13T05:36:04.322Z,100642.00
2018-11-13T05:38:33.729Z,100651.00
2018-11-13T05:41:03.758Z,100659.00
2018-11-13T05:43:33.308Z,100672.00
2018-11-13T05:46:04.942Z,100665.00
2018-11-13T05:48:35.588Z,100667.00
2018-11-13T05:51:06.342Z,100679.00
2018-11-13T05:53:37.835Z,100672.00
2018-11-13T05:56:09.804Z,100676.00
2018-11-13T05:58:41.101Z,100671.00
2018-11-13T06:01:12.085Z,100685.00
2018-11-13T06:03:42.847Z,100683.00
2018-11-13T06:06:12.652Z,100693.00
2018-11-13T06:08:54.659Z,100709.00
2018-11-13T06:11:26.196Z,100719.00
2018-11-13T06:13:55.558Z,100726.00
2018-11-13T06:16:24.966Z,100730.00
2018-11-13T06:18:54.941Z,100743.00
2018-11-13T06:21:24.289Z,100746.00
2018-11-13T06:24:07.473Z,100750.00
2018-11-13T06:26:36.993Z,100759.00
2018-11-13T06:29:13.401Z,100760.00
2018-11-13T06:31:42.848Z,100757.00
2018-11-13T06:34:12.319Z,100762.00
2018-11-13T06:36:41.939Z,100768.00
2018-11-13T06:39:14.134Z,100772.00
2018-11-13T06:41:44.267Z,100771.00
2018-11-13T06:44:13.765Z,100763.00
2018-11-13T06:46:43.108Z,100756.00
2018-11-13T06:49:13.695Z,100759.00
2018-11-13T06:51:45.040Z,100765.00
2018-11-13T06:54:35.256Z,100763.00
2018-11-13T06:57:06.808Z,100773.00
2018-11-13T06:59:36.633Z,100778.00
2018-11-13T07:02:06.940Z,100771.00
2018-11-13T07:04:37.429Z,100782.00
2018-11-13T07:07:08.530Z,100774.00
2018-11-13T07:09:40.143Z,100781.00
2018-11-13T07:12:11.313Z,100778.00
2018-11-13T07:14:41.594Z,100765.00
2018-11-13T07:17:12.027Z,100776.00
2018-11-13T07:19:44.266Z,100773.00
2018-11-13T07:22:29.784Z,100775.00
2018-11-13T07:25:00.598Z,100784.00
2018-11-13T07:27:32.883Z,100793.00
2018-11-13T07:30:03.717Z,100794.00
2018-11-13T07:32:48.252Z,100795.00
2018-11-13T07:35:18.984Z,100799.00
2018-11-13T07:37:51.930Z,100800.00
2018-11-13T07:40:21.779Z,100805.00
2018-11-13T07:42:52.096Z,100808.00
2018-11-13T07:45:22.977Z,100810.00
2018-11-13T07:47:56.830Z,100813.00
2018-11-13T07:50:30.454Z,100814.00
2018-11-13T07:59:19.048Z,100830.00
2018-11-13T08:01:50.820Z,100826.00
2018-11-13T08:04:42.194Z,100826.00
2018-11-13T08:07:13.046Z,100817.00
2018-11-13T08:09:43.111Z,100817.00
2018-11-13T08:12:35.094Z,100804.00
2018-11-13T08:27:24.129Z,100844.00
2018-11-13T08:29:56.803Z,100843.00
2018-11-13T08:32:38.204Z,100857.00
2018-11-13T08:35:21.032Z,100865.00
2018-11-13T08:38:15.124Z,100864.00
2018-11-13T08:40:55.279Z,100863.00
2018-11-13T08:46:28.795Z,100881.00
2018-11-13T08:49:14.687Z,100883.00
2018-11-13T08:51:48.836Z,100883.00
2018-11-13T08:59:22.700Z,100892.00
2018-11-13T09:05:29.969Z,100923.00
2018-11-13T09:08:04.752Z,100935.00
2018-11-13T09:13:47.753Z,100933.00
2018-11-13T09:16:19.035Z,100928.00
2018-11-13T09:18:50.672Z,100935.00
2018-11-13T09:21:31.093Z,100939.00
2018-11-13T09:24:19.934Z,100946.00
2018-11-13T09:27:06.416Z,100949.00
2018-11-13T09:29:44.767Z,100955.00
2018-11-13T09:32:28.564Z,100953.00
2018-11-13T09:35:12.628Z,100949.00
2018-11-13T09:37:43.395Z,100957.00
2018-11-13T09:40:19.020Z,100960.00
2018-11-13T09:43:29.484Z,100966.00
2018-11-13T09:46:25.118Z,100968.00
2018-11-13T09:57:44.171Z,100965.00
2018-11-13T10:01:01.499Z,100978.00
2018-11-13T10:03:45.686Z,100977.00
2018-11-13T10:06:15.579Z,100979.00
2018-11-13T10:08:49.494Z,100987.00
2018-11-13T10:11:20.359Z,100991.00
2018-11-13T10:13:50.573Z,100984.00
2018-11-13T10:16:20.551Z,100978.00
2018-11-13T10:18:51.100Z,100974.00
2018-11-13T10:21:28.429Z,100980.00
2018-11-13T10:23:58.056Z,100974.00
2018-11-13T10:26:37.353Z,100970.00
2018-11-13T10:29:11.007Z,100969.00
2018-11-13T10:31:40.535Z,100974.00
2018-11-13T10:34:13.295Z,100980.00
2018-11-13T10:36:46.022Z,100987.00
2018-11-13T10:39:15.601Z,100995.00
2018-11-13T10:41:46.468Z,100986.00
2018-11-13T10:44:17.927Z,100987.00
2018-11-13T10:47:00.389Z,100993.00
2018-11-13T10:49:34.401Z,100990.00
2018-11-13T10:52:05.374Z,100995.00
2018-11-13T10:54:37.098Z,100984.00
2018-11-13T10:57:09.776Z,100986.00
2018-11-13T10:59:43.020Z,100994.00
2018-11-13T11:02:18.190Z,100994.00
2018-11-13T11:04:56.891Z,101001.00
2018-11-13T11:07:28.146Z,100995.00
2018-11-13T11:10:00.275Z,101004.00
2018-11-13T11:12:34.007Z,101010.00
2018-11-13T11:15:05.259Z,101016.00
2018-11-13T11:17:40.623Z,101012.00
2018-11-13T11:20:13.755Z,101023.00
2018-11-13T11:22:44.307Z,101025.00
2018-11-13T11:25:14.980Z,101033.00
2018-11-13T11:27:53.578Z,101026.00
2018-11-13T11:30:27.341Z,101034.00
2018-11-13T11:32:57.202Z,101029.00
2018-11-13T11:35:30.483Z,101034.00
2018-11-13T11:38:01.473Z,101029.00
2018-11-13T11:40:34.167Z,101025.00
2018-11-13T11:43:09.299Z,101026.00
2018-11-13T11:45:39.664Z,101030.00
2018-11-13T11:50:47.783Z,101026.00
2018-11-13T11:53:17.467Z,101027.00
2018-11-13T11:56:02.009Z,101029.00
2018-11-13T11:58:47.461Z,101023.00
2018-11-13T12:01:17.059Z,101032.00
2018-11-13T12:03:47.893Z,101023.00
2018-11-13T12:06:17.622Z,101025.00
2018-11-13T12:08:49.480Z,101025.00
2018-11-13T12:11:21.301Z,101028.00
2018-11-13T12:13:51.697Z,101028.00
2018-11-13T12:16:22.438Z,101030.00
2018-11-13T12:19:00.190Z,101032.00
2018-11-13T12:21:34.650Z,101024.00
2018-11-13T12:24:08.387Z,101025.00
2018-11-13T12:26:42.061Z,101020.00
2018-11-13T12:29:22.461Z,101026.00
2018-11-13T12:32:03.766Z,101033.00
2018-11-13T12:34:44.506Z,101035.00
2018-11-13T12:37:37.060Z,101028.00
2018-11-13T12:40:26.507Z,101020.00
2018-11-13T12:43:13.334Z,101027.00
2018-11-13T12:49:28.017Z,101025.00
2018-11-13T13:59:12.097Z,101080.00
2018-11-13T14:40:37.954Z,101084.00
2018-11-13T14:54:41.649Z,101085.00
2018-11-13T15:26:37.776Z,101148.00
2018-11-13T15:29:47.918Z,101158.00
2018-11-13T15:32:28.404Z,101160.00
2018-11-13T15:35:23.527Z,101164.00
2018-11-13T15:41:14.967Z,101173.00
2018-11-13T16:11:13.496Z,101206.00
2018-11-13T16:13:59.007Z,101214.00
2018-11-13T16:16:29.648Z,101210.00
2018-11-13T16:19:08.321Z,101218.00
2018-11-13T16:21:38.986Z,101220.00
2018-11-13T16:27:43.305Z,101227.00
2018-11-13T16:33:14.925Z,101232.00
2018-11-13T16:35:45.597Z,101227.00
2018-11-13T16:38:18.939Z,101218.00
2018-11-13T16:41:07.986Z,101219.00
2018-11-13T16:43:42.691Z,101223.00
2018-11-13T16:46:20.889Z,101229.00
2018-11-13T16:51:54.950Z,101237.00
2018-11-13T16:54:29.358Z,101239.00
2018-11-13T16:57:01.391Z,101252.00
2018-11-13T16:59:31.694Z,101250.00
2018-11-13T17:02:06.564Z,101251.00
2018-11-13T17:04:39.935Z,101258.00
2018-11-13T17:07:27.443Z,101271.00
2018-11-13T17:09:57.279Z,101304.00
2018-11-13T17:12:30.276Z,101310.00
2018-11-13T17:18:35.864Z,101309.00
2018-11-13T17:21:09.849Z,101321.00
2018-11-13T17:27:51.955Z,101335.00
2018-11-13T17:33:46.390Z,101337.00
2018-11-13T17:36:26.749Z,101327.00
2018-11-13T17:39:01.915Z,101336.00
2018-11-13T17:45:20.310Z,101340.00
2018-11-13T17:52:02.958Z,101346.00
2018-11-13T18:12:15.012Z,101373.00
2018-11-13T18:45:22.691Z,101386.00
2018-11-13T21:10:34.580Z,101495.00
2018-11-13T21:37:22.349Z,101520.00
2018-11-13T21:49:59.247Z,101538.00
